createdAt,value
2019-05-13T00:00:39.869Z,4.05
2019-05-13T00:05:48.100Z,4.34
2019-05-13T00:10:55.681Z,4.01
2019-05-13T00:16:03.801Z,4.48
2019-05-13T00:21:10.445Z,4.41
2019-05-13T00:26:18.068Z,4.30
2019-05-13T00:31:48.141Z,4.28
2019-05-13T00:36:25.756Z,4.51
2019-05-13T00:41:33.822Z,4.50
2019-05-13T00:46:40.749Z,4.60
2019-05-13T00:51:48.376Z,4.70
2019-05-13T00:56:55.973Z,4.92
2019-05-13T01:02:03.873Z,5.16
2019-05-13T01:07:24.782Z,4.91
2019-05-13T01:12:18.557Z,5.04
2019-05-13T01:17:26.321Z,4.84
2019-05-13T01:22:34.474Z,4.97
2019-05-13T01:27:41.890Z,5.17
2019-05-13T01:32:48.244Z,5.05
2019-05-13T01:37:55.853Z,4.99
2019-05-13T01:43:03.685Z,5.20
2019-05-13T01:48:13.862Z,5.03
2019-05-13T01:53:19.278Z,5.32
2019-05-13T01:58:26.884Z,5.09
2019-05-13T02:08:43.864Z,5.97
2019-05-13T02:13:49.189Z,5.50
2019-05-13T02:18:56.788Z,5.79
2019-05-13T02:24:04.545Z,5.85
2019-05-13T02:29:19.037Z,5.61
2019-05-13T02:34:16.624Z,6.55
2019-05-13T02:39:24.310Z,6.86
2019-05-13T02:44:33.337Z,6.22
2019-05-13T02:49:42.129Z,6.24
2019-05-13T02:54:46.785Z,6.74
2019-05-13T02:59:54.480Z,6.12
2019-05-13T03:05:03.258Z,6.07
2019-05-13T03:10:09.584Z,7.00
2019-05-13T03:15:17.194Z,7.87
2019-05-13T03:20:24.812Z,6.52
2019-05-13T03:25:33.209Z,7.61
2019-05-13T03:30:45.124Z,6.41
2019-05-13T03:35:46.884Z,7.07
2019-05-13T03:40:54.516Z,7.08
2019-05-13T03:46:03.350Z,6.80
2019-05-13T03:51:12.906Z,7.29
2019-05-13T03:56:17.375Z,8.24
2019-05-13T04:01:25.001Z,8.05
2019-05-13T04:06:32.704Z,10.03
2019-05-13T04:11:48.601Z,8.18
2019-05-13T04:16:46.730Z,8.24
2019-05-13T04:21:54.363Z,10.49
2019-05-13T04:27:02.789Z,8.27
2019-05-13T04:32:12.321Z,8.58
2019-05-13T04:37:16.321Z,8.21
2019-05-13T04:42:23.917Z,9.14
2019-05-13T04:47:33.262Z,8.86
2019-05-13T04:52:42.118Z,8.89
2019-05-13T04:57:45.914Z,8.87
2019-05-13T05:02:55.161Z,9.33
2019-05-13T05:08:03.138Z,9.50
2019-05-13T05:13:08.025Z,8.99
2019-05-13T05:18:15.628Z,10.13
2019-05-13T05:23:23.455Z,10.16
2019-05-13T05:28:31.963Z,9.62
2019-05-13T05:33:38.280Z,8.09
2019-05-13T05:38:52.260Z,7.41
2019-05-13T05:43:52.244Z,7.50
2019-05-13T05:48:57.305Z,7.03
2019-05-13T05:54:05.165Z,6.94
2019-05-13T05:59:12.774Z,7.06
2019-05-13T06:04:22.062Z,5.61
2019-05-13T06:09:28.508Z,5.60
2019-05-13T06:14:36.124Z,5.72
2019-05-13T06:19:43.710Z,5.76
2019-05-13T06:24:52.184Z,5.84
2019-05-13T06:29:58.540Z,5.54
2019-05-13T06:35:06.972Z,6.09
2019-05-13T06:40:14.613Z,5.24
2019-05-13T06:45:22.196Z,5.20
2019-05-13T06:50:32.181Z,5.58
2019-05-13T06:55:36.988Z,5.31
2019-05-13T07:00:44.704Z,5.11
2019-05-13T07:05:52.621Z,5.28
2019-05-13T07:11:14.106Z,4.94
2019-05-13T07:16:07.165Z,4.77
2019-05-13T07:21:14.764Z,4.37
2019-05-13T07:26:22.526Z,3.35
2019-05-13T07:31:32.310Z,4.05
2019-05-13T07:36:37.296Z,3.42
2019-05-13T07:41:44.883Z,3.25
2019-05-13T07:46:52.522Z,3.32
2019-05-13T07:52:01.550Z,3.26
2019-05-13T07:57:07.589Z,2.60
2019-05-13T08:02:15.161Z,3.02
2019-05-13T08:07:23.188Z,3.09
2019-05-13T08:12:31.898Z,2.68
2019-05-13T08:17:41.338Z,3.16
2019-05-13T08:22:45.141Z,2.96
2019-05-13T08:27:52.774Z,2.29
2019-05-13T08:33:01.821Z,2.52
2019-05-13T08:38:07.620Z,2.42
2019-05-13T08:43:15.264Z,2.02
2019-05-13T08:48:26.124Z,2.40
2019-05-13T08:53:23.708Z,2.45
2019-05-13T08:58:32.020Z,2.09
2019-05-13T09:03:41.503Z,3.64
2019-05-13T09:08:46.104Z,2.34
2019-05-13T09:13:53.725Z,1.69
2019-05-13T09:19:03.675Z,2.29
2019-05-13T09:24:23.942Z,1.89
2019-05-13T09:29:15.637Z,2.34
2019-05-13T09:34:23.420Z,2.04
2019-05-13T09:39:32.297Z,2.18
2019-05-13T09:44:38.213Z,2.05
2019-05-13T09:49:45.805Z,1.95
2019-05-13T09:54:53.557Z,1.62
2019-05-13T10:00:01.936Z,1.98
2019-05-13T10:05:08.305Z,2.18
2019-05-13T10:10:15.964Z,1.77
2019-05-13T10:15:23.716Z,2.11
2019-05-13T10:20:31.819Z,2.03
2019-05-13T10:25:38.533Z,2.03
2019-05-13T10:30:46.182Z,1.91
2019-05-13T10:35:53.828Z,1.88
2019-05-13T10:41:03.268Z,2.04
2019-05-13T10:46:08.597Z,2.01
2019-05-13T10:51:16.186Z,2.41
2019-05-13T10:56:23.822Z,2.42
2019-05-13T11:01:32.734Z,2.14
2019-05-13T11:06:38.556Z,1.86
2019-05-13T11:11:46.228Z,2.12
2019-05-13T11:16:53.868Z,2.46
2019-05-13T11:22:02.768Z,1.77
2019-05-13T11:27:11.747Z,2.31
2019-05-13T11:32:15.869Z,2.47
2019-05-13T11:37:23.527Z,2.41
2019-05-13T11:42:32.794Z,2.60
2019-05-13T11:47:38.189Z,2.23
2019-05-13T11:52:45.825Z,2.82
2019-05-13T11:57:53.447Z,2.79
2019-05-13T12:03:04.239Z,3.27
2019-05-13T12:08:08.242Z,2.17
2019-05-13T12:13:16.040Z,2.26
2019-05-13T12:18:23.993Z,2.43
2019-05-13T12:23:31.410Z,2.42
2019-05-13T12:28:41.519Z,3.23
2019-05-13T12:33:46.223Z,2.79
2019-05-13T12:38:54.513Z,2.32
2019-05-13T12:44:01.789Z,2.45
2019-05-13T12:49:08.177Z,2.60
2019-05-13T12:54:15.803Z,2.86
2019-05-13T12:59:23.473Z,3.72
2019-05-13T13:04:33.506Z,2.36
2019-05-13T13:09:38.272Z,2.38
2019-05-13T13:14:45.899Z,2.19
2019-05-13T13:19:54.753Z,2.15
2019-05-13T13:25:05.009Z,2.18
2019-05-13T13:30:08.666Z,2.04
2019-05-13T13:35:15.301Z,2.15
2019-05-13T13:40:28.373Z,2.28
2019-05-13T13:45:37.430Z,2.16
2019-05-13T13:50:37.585Z,2.15
2019-05-13T13:55:45.184Z,1.67
2019-05-13T14:01:01.703Z,2.04
2019-05-13T14:06:05.717Z,2.52
2019-05-13T14:11:07.060Z,2.66
2019-05-13T14:16:28.640Z,2.52
2019-05-13T14:21:21.791Z,3.02
2019-05-13T14:26:29.545Z,2.68
2019-05-13T14:31:36.697Z,2.71
2019-05-13T14:36:44.551Z,2.74
2019-05-13T14:41:52.140Z,2.84
2019-05-13T14:47:01.580Z,2.76
2019-05-13T14:52:06.954Z,2.97
2019-05-13T14:57:15.053Z,2.68
2019-05-13T15:02:21.739Z,2.67
2019-05-13T15:07:29.388Z,2.69
2019-05-13T15:12:37.021Z,2.36
2019-05-13T15:17:44.622Z,2.31
2019-05-13T15:22:52.252Z,2.31
2019-05-13T15:27:59.825Z,2.46
2019-05-13T15:33:07.481Z,2.33
2019-05-13T15:38:15.073Z,2.50
2019-05-13T15:43:22.677Z,2.32
2019-05-13T15:48:31.546Z,2.34
2019-05-13T15:53:37.456Z,2.48
2019-05-13T15:58:45.154Z,2.34
2019-05-13T16:03:52.786Z,2.36
2019-05-13T16:09:02.792Z,2.65
2019-05-13T16:14:07.476Z,2.46
2019-05-13T16:19:15.151Z,2.86
2019-05-13T16:24:22.789Z,3.88
2019-05-13T16:29:31.527Z,2.66
2019-05-13T16:34:37.605Z,3.00
2019-05-13T16:39:45.193Z,3.19
2019-05-13T16:44:52.838Z,2.98
2019-05-13T16:50:02.591Z,2.44
2019-05-13T16:55:15.240Z,2.60
2019-05-13T17:00:13.933Z,2.78
2019-05-13T17:05:21.548Z,2.81
2019-05-13T17:10:31.376Z,3.32
2019-05-13T17:15:36.640Z,3.26
2019-05-13T17:20:44.275Z,3.13
2019-05-13T17:25:53.202Z,3.67
2019-05-13T17:31:07.904Z,3.28
2019-05-13T17:36:05.529Z,3.63
2019-05-13T17:41:13.158Z,3.27
2019-05-13T17:46:21.889Z,3.26
2019-05-13T17:51:27.949Z,3.04
2019-05-13T17:56:35.807Z,3.38
2019-05-13T18:01:43.490Z,2.97
2019-05-13T18:06:52.320Z,3.05
2019-05-13T18:11:58.540Z,3.22
2019-05-13T18:17:06.144Z,3.40
2019-05-13T18:22:13.771Z,2.98
2019-05-13T18:27:22.166Z,3.33
2019-05-13T18:32:28.552Z,3.63
2019-05-13T18:37:36.156Z,3.24
2019-05-13T18:42:43.830Z,3.07
2019-05-13T18:47:51.509Z,2.93
2019-05-13T18:53:01.628Z,2.88
2019-05-13T18:58:06.460Z,3.41
2019-05-13T19:03:14.061Z,4.76
2019-05-13T19:08:25.343Z,4.06
2019-05-13T19:13:23.693Z,3.80
2019-05-13T19:18:32.052Z,3.48
2019-05-13T19:23:38.449Z,3.42
2019-05-13T19:28:46.057Z,3.42
2019-05-13T19:33:53.704Z,3.38
2019-05-13T19:39:01.842Z,3.39
2019-05-13T19:44:08.641Z,3.15
2019-05-13T19:49:28.762Z,2.99
2019-05-13T19:54:23.473Z,3.03
2019-05-13T19:59:32.258Z,3.46
2019-05-13T20:04:38.316Z,2.87
2019-05-13T20:09:45.960Z,2.85
2019-05-13T20:14:53.715Z,3.13
2019-05-13T20:20:02.139Z,3.61
2019-05-13T20:25:10.329Z,3.14
2019-05-13T20:30:15.648Z,3.35
2019-05-13T20:35:23.254Z,3.70
2019-05-13T20:40:32.242Z,3.80
2019-05-13T20:45:38.289Z,3.68
2019-05-13T20:50:46.193Z,3.36
2019-05-13T20:55:53.836Z,3.45
2019-05-13T21:01:02.358Z,3.68
2019-05-13T21:06:08.671Z,3.56
2019-05-13T21:11:16.429Z,3.08
2019-05-13T21:16:24.072Z,3.20
2019-05-13T21:21:31.729Z,3.05
2019-05-13T21:26:39.388Z,3.27
2019-05-13T21:31:46.596Z,3.28
2019-05-13T21:37:06.676Z,3.47
2019-05-13T21:41:54.421Z,3.51
2019-05-13T21:47:02.307Z,3.08
2019-05-13T21:52:09.692Z,3.54
2019-05-13T21:57:17.349Z,3.30
2019-05-13T22:02:34.940Z,3.13
2019-05-13T22:07:32.561Z,3.47
2019-05-13T22:12:41.458Z,3.22
2019-05-13T22:17:47.353Z,3.25
2019-05-13T22:22:55.016Z,3.53
2019-05-13T22:28:02.648Z,3.27
2019-05-13T22:33:12.270Z,3.11
2019-05-13T22:38:17.660Z,3.06
2019-05-13T22:43:25.493Z,2.99
2019-05-13T22:48:33.088Z,3.35
2019-05-13T22:53:42.169Z,2.68
2019-05-13T22:58:47.888Z,2.92
2019-05-13T23:03:55.674Z,2.75
2019-05-13T23:09:03.285Z,2.76
2019-05-13T23:14:13.364Z,2.59
2019-05-13T23:19:18.081Z,2.60
2019-05-13T23:24:25.924Z,2.75
2019-05-13T23:29:33.545Z,2.65
2019-05-13T23:34:42.244Z,2.76
2019-05-13T23:39:51.968Z,2.86
2019-05-13T23:44:57.481Z,3.08
2019-05-13T23:50:05.098Z,3.50
2019-05-13T23:55:12.770Z,3.41
